Chicago, IL (60682)

5:46 PM CDT on July 25, 2016 (GMT -0500)
Brighton Park | | Change Station

Elev 597 ft 41.82 °N, 87.70 °W | Updated 7 minutes ago

Mostly Cloudy
Mostly Cloudy
87.6 °F
Feels Like 90 °F
N
5.8
Wind Variable Wind from ESE

Today
High -- | Low -- °F
--% Chance of Precip.
Yesterday
High -- | Low -- °F
Precip. -- in
Pressure 29.94 in
Visibility 10.0 miles
Clouds Few 5000 ft
Mostly Cloudy 25000 ft
Heat Index 90 °F
Dew Point 67 °F
Humidity 50%
Rainfall 0.00 in
Snow Depth Not available.
5:38 AM 8:15 PM
Waning Gibbous, 61% visible
METAR KMDW 252153Z 11009KT 10SM FEW050 BKN250 29/18 A2998 RMK AO2 SLP139 T02940178
Pressure 29.94 in
Visibility 10.0 miles
Clouds Few 5000 ft
Mostly Cloudy 25000 ft
Heat Index 90 °F
Dew Point 67 °F
Humidity 50%
Rainfall 0.00 in
Snow Depth Not available.
5:38 AM 8:15 PM
Waning Gibbous, 61% visible
METAR KMDW 252153Z 11009KT 10SM FEW050 BKN250 29/18 A2998 RMK AO2 SLP139 T02940178

10-Day Weather Forecast

Almanac

Astronomy

Jul. 25, 2016 Rise Set
Actual Time
Civil Twilight
Nautical Twilight
Astronomical Twilight
Moon
Length of Visible Light
Length of Day
Tomorrow will be .
, % of the Moon is Illuminated

Today's Extremes

State Highs State Lows

Community

WunderPhotos

Upload Photos

1,927,436 photos uploaded!

WunderBlog® & News

Nearby

Air Quality

  Air Quality AQ Index Pollutant
Not available.

Snow Depth

Station Depth Elevation

Earthquake Activity

City Distance Mag. Time & Date
Minimum magnitude displayed is 2.5.

Coastal Water Temperatures

Place Temperature

Stations

Nearby Weather Stations

Station Location Temp. Windchill Dew Point Humidity Wind Precip. Elev Updated Type
                   

Watches & Warnings

There are currently no watches in effect.